createdAt,value
2022-08-01T00:00:09.311Z,2.88
2022-08-01T00:02:39.539Z,3.13
2022-08-01T00:05:07.785Z,2.97
2022-08-01T00:07:35.626Z,2.88
2022-08-01T00:10:06.869Z,2.63
2022-08-01T00:12:33.665Z,2.90
2022-08-01T00:15:00.711Z,2.60
2022-08-01T00:17:27.446Z,2.60
2022-08-01T00:19:54.168Z,2.70
2022-08-01T00:22:20.965Z,2.58
2022-08-01T00:24:47.805Z,2.70
2022-08-01T00:27:14.633Z,2.70
2022-08-01T00:30:12.477Z,2.63
2022-08-01T00:32:30.644Z,2.80
2022-08-01T00:34:57.424Z,2.40
2022-08-01T00:37:24.207Z,2.95
2022-08-01T00:39:50.889Z,2.40
2022-08-01T00:42:17.628Z,2.83
2022-08-01T00:44:44.459Z,3.00
2022-08-01T00:47:11.217Z,2.70
2022-08-01T00:49:38.061Z,2.78
2022-08-01T00:52:07.019Z,3.10
2022-08-01T00:54:34.211Z,2.70
2022-08-01T00:57:01.175Z,3.00
2022-08-01T00:59:28.337Z,2.70
2022-08-01T01:01:55.388Z,2.90
2022-08-01T01:04:23.132Z,2.60
2022-08-01T01:06:58.523Z,2.90
2022-08-01T01:09:25.416Z,2.60
2022-08-01T01:12:04.414Z,2.60
2022-08-01T01:14:39.624Z,2.90
2022-08-01T01:17:10.091Z,2.53
2022-08-01T01:19:45.182Z,3.20
2022-08-01T01:22:49.449Z,2.70
2022-08-01T01:25:25.488Z,3.10
2022-08-01T01:28:03.926Z,2.90
2022-08-01T01:30:33.869Z,2.72
2022-08-01T01:33:06.626Z,3.10
2022-08-01T01:35:37.581Z,2.90
2022-08-01T01:38:20.768Z,3.40
2022-08-01T01:40:49.859Z,2.90
2022-08-01T01:43:18.859Z,3.10
2022-08-01T01:45:48.015Z,3.00
2022-08-01T01:48:17.798Z,3.00
2022-08-01T01:50:47.195Z,2.90
2022-08-01T01:53:16.214Z,2.95
2022-08-01T01:55:49.422Z,2.92
2022-08-01T01:58:18.512Z,3.00
2022-08-01T02:00:47.787Z,2.90
2022-08-01T02:03:15.758Z,3.10
2022-08-01T02:05:43.482Z,3.38
2022-08-01T02:08:12.578Z,3.00
2022-08-01T02:10:41.585Z,3.20
2022-08-01T02:13:09.701Z,3.13
2022-08-01T02:15:59.207Z,3.08
2022-08-01T02:18:27.305Z,2.65
2022-08-01T02:20:56.670Z,3.10
2022-08-01T02:23:28.132Z,3.20
2022-08-01T02:26:09.402Z,3.03
2022-08-01T02:28:54.015Z,2.90
2022-08-01T02:31:23.119Z,2.80
2022-08-01T02:34:06.515Z,2.90
2022-08-01T02:36:36.378Z,3.10
2022-08-01T02:39:08.977Z,3.13
2022-08-01T02:41:41.800Z,3.15
2022-08-01T02:44:11.749Z,2.90
2022-08-01T02:46:44.403Z,2.80
2022-08-01T02:49:13.676Z,3.00
2022-08-01T02:51:41.905Z,3.05
2022-08-01T02:54:09.668Z,2.92
2022-08-01T02:56:37.539Z,2.80
2022-08-01T02:59:13.729Z,3.40
2022-08-01T03:01:44.068Z,3.20
2022-08-01T03:04:11.757Z,3.40
2022-08-01T03:06:40.074Z,3.10
2022-08-01T03:09:10.846Z,2.80
2022-08-01T03:11:40.778Z,3.10
2022-08-01T03:14:10.093Z,3.22
2022-08-01T03:16:39.688Z,3.00
2022-08-01T03:19:09.511Z,3.03
2022-08-01T03:21:38.174Z,2.78
2022-08-01T03:24:06.969Z,2.90
2022-08-01T03:26:37.105Z,3.10
2022-08-01T03:29:07.671Z,2.80
2022-08-01T03:31:39.258Z,2.83
2022-08-01T03:34:07.154Z,3.08
2022-08-01T03:36:35.623Z,2.65
2022-08-01T03:39:06.080Z,2.88
2022-08-01T03:41:39.001Z,2.90
2022-08-01T03:44:11.161Z,3.00
2022-08-01T03:46:44.338Z,2.95
2022-08-01T03:49:22.466Z,2.63
2022-08-01T03:51:51.874Z,3.10
2022-08-01T03:54:24.494Z,2.70
2022-08-01T03:56:52.765Z,3.00
2022-08-01T03:59:21.017Z,2.80
2022-08-01T04:01:48.713Z,2.60
2022-08-01T04:04:15.810Z,2.78
2022-08-01T04:06:44.845Z,3.10
2022-08-01T04:09:13.747Z,3.05
2022-08-01T04:11:41.844Z,3.15
2022-08-01T04:14:09.348Z,2.80
2022-08-01T04:16:36.497Z,2.70
2022-08-01T04:19:03.502Z,2.83
2022-08-01T04:21:33.411Z,2.80
2022-08-01T04:24:06.027Z,3.20
2022-08-01T04:26:35.688Z,3.40
2022-08-01T04:29:05.875Z,3.30
2022-08-01T04:31:33.688Z,3.20
2022-08-01T04:34:02.740Z,3.33
2022-08-01T04:36:30.925Z,3.55
2022-08-01T04:39:02.277Z,3.13
2022-08-01T04:41:30.729Z,3.30
2022-08-01T04:44:00.250Z,3.20
2022-08-01T04:46:29.377Z,3.10
2022-08-01T04:48:57.167Z,2.97
2022-08-01T04:51:24.086Z,2.60
2022-08-01T04:53:52.147Z,2.60
2022-08-01T04:56:22.114Z,2.88
2022-08-01T04:58:49.146Z,2.90
2022-08-01T05:01:16.629Z,2.85
2022-08-01T05:03:43.496Z,2.97
2022-08-01T05:06:10.332Z,2.80
2022-08-01T05:08:37.241Z,2.95
2022-08-01T05:11:04.402Z,2.90
2022-08-01T05:13:31.489Z,2.70
2022-08-01T05:15:58.279Z,2.70
2022-08-01T05:18:27.962Z,3.20
2022-08-01T05:20:55.632Z,2.50
2022-08-01T05:23:42.579Z,2.60
2022-08-01T05:26:09.422Z,2.72
2022-08-01T05:28:36.324Z,2.45
2022-08-01T05:31:04.290Z,2.40
2022-08-01T05:33:31.045Z,2.50
2022-08-01T05:35:57.787Z,2.78
2022-08-01T05:38:24.506Z,2.30
2022-08-01T05:40:51.262Z,2.63
2022-08-01T05:43:18.020Z,2.38
2022-08-01T05:45:45.532Z,2.40
2022-08-01T05:48:12.415Z,3.00
2022-08-01T05:50:39.194Z,2.60
2022-08-01T05:53:05.897Z,2.40
2022-08-01T05:55:32.774Z,3.17
2022-08-01T05:57:59.689Z,2.60
2022-08-01T06:00:26.796Z,2.10
2022-08-01T06:02:53.984Z,2.10
2022-08-01T06:05:20.968Z,2.00
2022-08-01T06:07:47.903Z,2.53
2022-08-01T06:10:14.732Z,2.30
2022-08-01T06:12:41.677Z,2.00
2022-08-01T06:15:08.978Z,1.90
2022-08-01T06:17:35.894Z,2.08
2022-08-01T06:20:02.828Z,2.40
2022-08-01T06:22:29.613Z,2.20
2022-08-01T06:24:57.707Z,2.03
2022-08-01T06:27:25.906Z,2.00
2022-08-01T06:29:54.551Z,2.00
2022-08-01T06:32:27.288Z,2.00
2022-08-01T06:34:55.763Z,1.60
2022-08-01T06:37:23.328Z,1.60
2022-08-01T06:39:50.964Z,1.73
2022-08-01T06:42:18.566Z,1.70
2022-08-01T06:44:45.910Z,1.30
2022-08-01T06:47:12.785Z,1.70
2022-08-01T06:49:39.635Z,1.63
2022-08-01T06:52:06.691Z,1.60
2022-08-01T06:54:33.711Z,1.42
2022-08-01T06:57:00.478Z,1.70
2022-08-01T06:59:27.259Z,1.60
2022-08-01T07:01:54.163Z,1.40
2022-08-01T07:04:20.911Z,1.70
2022-08-01T07:06:47.688Z,1.90
2022-08-01T07:09:14.870Z,1.50
2022-08-01T07:11:42.095Z,1.60
2022-08-01T07:14:09.167Z,1.60
2022-08-01T07:16:36.179Z,1.73
2022-08-01T07:19:03.368Z,1.63
2022-08-01T07:21:40.207Z,1.60
2022-08-01T07:24:13.946Z,1.70
2022-08-01T07:26:53.692Z,1.60
2022-08-01T07:29:23.117Z,1.75
2022-08-01T07:31:49.939Z,1.60
2022-08-01T07:34:16.724Z,1.60
2022-08-01T07:36:43.743Z,1.40
2022-08-01T07:39:10.553Z,1.40
2022-08-01T07:41:53.083Z,1.98
2022-08-01T07:44:24.299Z,2.13
2022-08-01T07:46:55.064Z,1.88
2022-08-01T07:49:22.802Z,1.73
2022-08-01T07:52:03.407Z,1.70
2022-08-01T07:54:33.396Z,1.77
2022-08-01T07:57:02.073Z,1.70
2022-08-01T07:59:28.863Z,1.73
2022-08-01T08:01:55.766Z,1.70
2022-08-01T08:04:22.904Z,1.50
2022-08-01T08:06:50.195Z,1.80
2022-08-01T08:09:17.296Z,1.80
2022-08-01T08:11:48.441Z,2.00
2022-08-01T08:14:16.828Z,1.80
2022-08-01T08:16:44.779Z,1.70
2022-08-01T08:19:12.486Z,1.97
2022-08-01T08:21:40.033Z,2.00
2022-08-01T08:24:26.255Z,1.90
2022-08-01T08:26:59.718Z,2.10
2022-08-01T08:29:28.016Z,1.75
2022-08-01T08:31:58.651Z,1.90
2022-08-01T08:34:26.830Z,2.00
2022-08-01T08:36:54.404Z,2.00
2022-08-01T08:39:21.365Z,1.90
2022-08-01T08:41:49.947Z,2.10
2022-08-01T08:44:18.063Z,1.90
2022-08-01T08:46:50.117Z,2.10
2022-08-01T08:49:20.688Z,2.20
2022-08-01T08:51:50.660Z,1.90
2022-08-01T08:54:20.637Z,2.00
2022-08-01T08:56:48.148Z,2.22
2022-08-01T08:59:15.230Z,2.85
2022-08-01T09:01:43.333Z,2.80
2022-08-01T09:04:10.995Z,3.00
2022-08-01T09:06:38.454Z,2.28
2022-08-01T09:09:06.459Z,2.00
2022-08-01T09:11:34.261Z,2.50
2022-08-01T09:14:06.852Z,2.10
2022-08-01T09:16:35.660Z,2.10
2022-08-01T09:19:39.731Z,2.25
2022-08-01T09:22:09.517Z,2.50
2022-08-01T09:24:37.386Z,2.55
2022-08-01T09:27:26.426Z,2.90
2022-08-01T09:30:00.575Z,3.50
2022-08-01T09:32:35.881Z,3.15
2022-08-01T09:35:30.925Z,3.10
2022-08-01T09:38:15.822Z,2.97
2022-08-01T09:40:49.404Z,3.00
2022-08-01T09:43:16.484Z,2.65
2022-08-01T09:45:45.698Z,3.00
2022-08-01T09:48:18.688Z,2.80
2022-08-01T09:50:47.685Z,2.88
2022-08-01T09:53:24.462Z,2.92
2022-08-01T09:56:12.899Z,3.50
2022-08-01T09:59:00.589Z,3.40
2022-08-01T10:01:36.017Z,3.88
2022-08-01T10:04:26.595Z,3.50
2022-08-01T10:07:06.022Z,3.63
2022-08-01T10:09:40.276Z,4.43
2022-08-01T10:12:09.164Z,4.35
2022-08-01T10:14:46.336Z,4.47
2022-08-01T10:17:18.312Z,4.43
2022-08-01T10:19:47.719Z,4.40
2022-08-01T10:22:17.653Z,3.53
2022-08-01T10:24:47.151Z,4.10
2022-08-01T10:27:17.265Z,3.88
2022-08-01T10:30:05.505Z,4.20
2022-08-01T10:32:39.656Z,3.63
2022-08-01T10:35:14.855Z,3.05
2022-08-01T10:37:52.253Z,2.97
2022-08-01T10:40:35.597Z,3.03
2022-08-01T10:43:03.644Z,3.50
2022-08-01T10:45:31.664Z,2.70
2022-08-01T10:48:23.454Z,2.78
2022-08-01T10:50:55.119Z,3.00
2022-08-01T10:53:31.131Z,3.22
2022-08-01T10:56:13.047Z,3.70
2022-08-01T10:58:45.275Z,3.95
2022-08-01T11:01:18.215Z,3.30
2022-08-01T11:04:01.060Z,2.88
2022-08-01T11:06:34.289Z,2.80
2022-08-01T11:09:16.222Z,3.05
2022-08-01T11:12:08.201Z,3.00
2022-08-01T11:14:59.487Z,3.53
2022-08-01T11:17:45.257Z,3.25
2022-08-01T11:20:17.609Z,3.80
2022-08-01T11:23:04.678Z,3.00
2022-08-01T11:26:03.897Z,3.00
2022-08-01T11:28:32.322Z,2.40
2022-08-01T11:31:13.768Z,2.78
2022-08-01T11:33:45.992Z,2.33
2022-08-01T11:36:42.582Z,2.83
2022-08-01T11:39:13.273Z,2.60
2022-08-01T11:41:42.101Z,2.70
2022-08-01T11:44:49.128Z,2.63
2022-08-01T11:47:16.867Z,2.93
2022-08-01T11:49:50.438Z,3.03
2022-08-01T11:52:32.746Z,2.40
2022-08-01T11:55:11.325Z,2.90
2022-08-01T11:57:39.318Z,2.50
2022-08-01T12:00:16.894Z,2.47
2022-08-01T12:02:46.850Z,2.65
2022-08-01T12:05:17.718Z,2.53
2022-08-01T12:07:47.283Z,2.37
2022-08-01T12:10:16.271Z,2.70
2022-08-01T12:12:52.383Z,2.92
2022-08-01T12:15:21.159Z,3.05
2022-08-01T12:17:58.224Z,3.22
2022-08-01T12:20:34.618Z,2.97
2022-08-01T12:23:04.137Z,2.90
2022-08-01T12:25:31.017Z,3.00
2022-08-01T12:28:05.009Z,2.50
2022-08-01T12:30:36.205Z,2.80
2022-08-01T12:33:07.974Z,2.95
2022-08-01T12:35:37.435Z,2.50
2022-08-01T12:38:15.169Z,2.30
2022-08-01T12:40:45.538Z,2.60
2022-08-01T12:43:27.327Z,2.33
2022-08-01T12:45:59.301Z,2.60
2022-08-01T12:48:26.889Z,2.60
2022-08-01T12:50:56.882Z,2.28
2022-08-01T12:53:24.051Z,2.40
2022-08-01T12:55:58.648Z,2.72
2022-08-01T12:58:33.496Z,2.47
2022-08-01T13:01:09.211Z,2.60
2022-08-01T13:03:36.374Z,2.57
2022-08-01T13:06:12.012Z,2.80
2022-08-01T13:08:39.593Z,2.60
2022-08-01T13:11:18.204Z,2.40
2022-08-01T13:13:51.052Z,2.30
2022-08-01T13:16:30.713Z,2.30
2022-08-01T13:19:06.858Z,2.50
2022-08-01T13:21:53.010Z,2.30
2022-08-01T13:24:39.144Z,2.00
2022-08-01T13:27:06.394Z,2.40
2022-08-01T13:29:39.035Z,2.33
2022-08-01T13:32:27.660Z,2.55
2022-08-01T13:35:03.662Z,2.30
2022-08-01T13:37:30.364Z,2.22
2022-08-01T13:39:59.212Z,2.20
2022-08-01T13:42:26.159Z,2.10
2022-08-01T13:44:52.973Z,2.35
2022-08-01T13:47:19.711Z,2.30
2022-08-01T13:50:01.693Z,2.40
2022-08-01T13:52:29.438Z,2.20
2022-08-01T13:54:56.289Z,2.00
2022-08-01T13:57:23.216Z,2.20
2022-08-01T13:59:50.119Z,1.90
2022-08-01T14:02:16.934Z,2.00
2022-08-01T14:04:43.733Z,1.98
2022-08-01T14:07:14.396Z,1.70
2022-08-01T14:10:04.550Z,1.80
2022-08-01T14:12:29.973Z,2.00
2022-08-01T14:14:57.421Z,1.90
2022-08-01T14:17:24.454Z,2.38
2022-08-01T14:19:51.380Z,2.20
2022-08-01T14:22:18.147Z,2.03
2022-08-01T14:24:44.920Z,2.00
2022-08-01T14:27:11.818Z,2.03
2022-08-01T14:30:03.028Z,2.05
2022-08-01T14:32:28.509Z,2.10
2022-08-01T14:34:57.133Z,2.13
2022-08-01T14:37:29.138Z,2.10
2022-08-01T14:39:58.809Z,2.20
2022-08-01T14:42:26.746Z,2.15
2022-08-01T14:44:53.551Z,2.10
2022-08-01T14:47:21.615Z,1.95
2022-08-01T14:49:50.190Z,2.40
2022-08-01T14:52:17.466Z,2.05
2022-08-01T14:54:44.305Z,2.10
2022-08-01T14:57:13.084Z,2.20
2022-08-01T14:59:40.099Z,2.20
2022-08-01T15:02:07.200Z,2.00
2022-08-01T15:04:34.069Z,2.20
2022-08-01T15:07:00.987Z,2.20
2022-08-01T15:09:27.801Z,2.10
2022-08-01T15:11:54.511Z,2.03
2022-08-01T15:14:39.919Z,2.00
2022-08-01T15:17:08.695Z,2.30
2022-08-01T15:19:38.994Z,2.00
2022-08-01T15:22:08.885Z,2.00
2022-08-01T15:24:35.948Z,2.15
2022-08-01T15:27:03.179Z,1.90
2022-08-01T15:29:30.052Z,2.15
2022-08-01T15:31:56.764Z,1.92
2022-08-01T15:34:24.118Z,1.90
2022-08-01T15:36:51.070Z,1.80
2022-08-01T15:39:18.043Z,2.00
2022-08-01T15:41:45.017Z,1.73
2022-08-01T15:44:11.737Z,1.92
2022-08-01T15:46:38.458Z,2.00
2022-08-01T15:49:06.256Z,1.90
2022-08-01T15:51:33.579Z,1.80
2022-08-01T15:54:03.846Z,1.75
2022-08-01T15:56:31.099Z,1.90
2022-08-01T15:58:58.526Z,2.00
2022-08-01T16:01:27.019Z,1.90
2022-08-01T16:03:55.229Z,1.83
2022-08-01T16:06:22.642Z,1.60
2022-08-01T16:08:49.829Z,1.50
2022-08-01T16:11:17.725Z,1.60
2022-08-01T16:13:44.557Z,1.70
2022-08-01T16:16:12.625Z,1.80
2022-08-01T16:18:39.649Z,1.70
2022-08-01T16:21:07.853Z,1.58
2022-08-01T16:23:34.800Z,1.42
2022-08-01T16:26:01.990Z,1.70
2022-08-01T16:28:28.788Z,1.60
2022-08-01T16:31:11.028Z,1.50
2022-08-01T16:33:51.687Z,1.30
2022-08-01T16:36:21.201Z,1.65
2022-08-01T16:38:48.161Z,1.42
2022-08-01T16:41:19.714Z,1.60
2022-08-01T16:43:53.786Z,1.40
2022-08-01T16:46:22.357Z,1.70
2022-08-01T16:48:49.230Z,1.40
2022-08-01T16:51:16.278Z,1.40
2022-08-01T16:53:43.100Z,1.30
2022-08-01T16:56:09.889Z,1.40
2022-08-01T16:58:36.929Z,1.50
2022-08-01T17:01:58.060Z,1.50
2022-08-01T17:03:51.581Z,1.50
2022-08-01T17:06:20.710Z,1.42
2022-08-01T17:08:49.931Z,1.23
2022-08-01T17:11:16.990Z,1.60
2022-08-01T17:13:43.891Z,1.30
2022-08-01T17:16:11.530Z,1.38
2022-08-01T17:18:38.353Z,1.53
2022-08-01T17:21:05.247Z,1.30
2022-08-01T17:23:32.447Z,1.60
2022-08-01T17:25:59.792Z,1.40
2022-08-01T17:28:26.800Z,1.20
2022-08-01T17:30:53.857Z,1.50
2022-08-01T17:33:21.264Z,1.50
2022-08-01T17:35:48.112Z,1.60
2022-08-01T17:38:14.985Z,1.30
2022-08-01T17:40:41.994Z,1.60
2022-08-01T17:43:09.027Z,1.40
2022-08-01T17:45:39.328Z,1.50
2022-08-01T17:48:18.088Z,1.30
2022-08-01T17:50:46.264Z,1.33
2022-08-01T17:53:14.339Z,1.60
2022-08-01T17:55:54.484Z,1.40
2022-08-01T17:58:48.836Z,1.20
2022-08-01T18:01:16.155Z,1.30
2022-08-01T18:03:43.936Z,1.30
2022-08-01T18:06:13.828Z,1.43
2022-08-01T18:08:41.983Z,1.40
2022-08-01T18:11:09.450Z,1.40
2022-08-01T18:13:36.603Z,1.40
2022-08-01T18:16:09.262Z,1.50
2022-08-01T18:18:36.657Z,1.48
2022-08-01T18:21:04.227Z,1.50
2022-08-01T18:23:33.534Z,1.50
2022-08-01T18:26:02.352Z,1.40
2022-08-01T18:28:34.141Z,1.40
2022-08-01T18:31:03.876Z,1.40
2022-08-01T18:33:30.860Z,1.33
2022-08-01T18:36:01.909Z,1.20
2022-08-01T18:38:32.224Z,1.15
2022-08-01T18:41:00.843Z,1.30
2022-08-01T18:43:28.208Z,1.40
2022-08-01T18:45:57.307Z,1.20
2022-08-01T18:48:24.513Z,1.50
2022-08-01T18:50:52.327Z,1.40
2022-08-01T18:53:20.802Z,1.35
2022-08-01T18:55:47.562Z,1.50
2022-08-01T18:58:14.443Z,1.70
2022-08-01T19:00:42.235Z,1.45
2022-08-01T19:03:09.732Z,1.70
2022-08-01T19:05:37.412Z,1.60
2022-08-01T19:08:07.575Z,1.50
2022-08-01T19:10:36.277Z,1.60
2022-08-01T19:13:03.317Z,1.70
2022-08-01T19:15:30.280Z,1.60
2022-08-01T19:17:57.457Z,1.35
2022-08-01T19:20:24.367Z,1.60
2022-08-01T19:22:51.186Z,1.30
2022-08-01T19:25:18.115Z,1.45
2022-08-01T19:27:49.070Z,1.60
2022-08-01T19:30:17.548Z,1.40
2022-08-01T19:32:46.644Z,1.52
2022-08-01T19:35:17.015Z,1.30
2022-08-01T19:37:47.164Z,1.60
2022-08-01T19:40:27.288Z,1.40
2022-08-01T19:42:55.522Z,1.30
2022-08-01T19:45:22.895Z,1.63
2022-08-01T19:47:56.207Z,1.60
2022-08-01T19:50:28.448Z,1.80
2022-08-01T19:53:04.031Z,1.63
2022-08-01T19:55:35.170Z,3.25
2022-08-01T19:58:26.239Z,3.10
2022-08-01T20:00:55.091Z,3.10
2022-08-01T20:03:22.937Z,2.60
2022-08-01T20:05:51.289Z,3.55
2022-08-01T20:08:19.909Z,1.42
2022-08-01T20:10:48.651Z,1.90
2022-08-01T20:13:17.181Z,2.30
2022-08-01T20:15:45.119Z,2.75
2022-08-01T20:18:12.037Z,2.10
2022-08-01T20:20:39.094Z,2.38
2022-08-01T20:23:10.146Z,2.42
2022-08-01T20:25:39.788Z,2.28
2022-08-01T20:28:10.948Z,2.80
2022-08-01T20:30:42.079Z,2.05
2022-08-01T20:33:11.351Z,2.20
2022-08-01T20:35:51.884Z,2.08
2022-08-01T20:38:23.934Z,2.00
2022-08-01T20:40:55.091Z,2.00
2022-08-01T20:43:22.579Z,1.95
2022-08-01T20:45:51.374Z,2.30
2022-08-01T20:48:19.156Z,1.90
2022-08-01T20:51:05.145Z,1.70
2022-08-01T20:53:36.727Z,1.90
2022-08-01T20:56:23.103Z,1.90
2022-08-01T20:59:00.336Z,1.80
2022-08-01T21:01:29.429Z,1.70
2022-08-01T21:04:09.090Z,1.50
2022-08-01T21:06:45.089Z,1.50
2022-08-01T21:09:18.488Z,1.52
2022-08-01T21:12:15.581Z,1.48
2022-08-01T21:14:55.231Z,1.65
2022-08-01T21:17:36.003Z,2.00
2022-08-01T21:20:07.696Z,1.70
2022-08-01T21:23:00.677Z,1.70
2022-08-01T21:25:32.896Z,1.70
2022-08-01T21:28:01.393Z,1.50
2022-08-01T21:30:32.527Z,1.30
2022-08-01T21:33:00.219Z,1.70
2022-08-01T21:35:27.600Z,1.30
2022-08-01T21:37:57.259Z,1.30
2022-08-01T21:40:24.578Z,1.60
2022-08-01T21:42:53.380Z,1.60
2022-08-01T21:45:23.582Z,1.40
2022-08-01T21:47:51.334Z,1.60
2022-08-01T21:50:18.789Z,1.77
2022-08-01T21:52:46.790Z,1.80
2022-08-01T21:55:35.561Z,1.55
2022-08-01T21:58:33.478Z,1.42
2022-08-01T22:01:16.764Z,1.45
2022-08-01T22:03:48.825Z,1.40
2022-08-01T22:06:19.005Z,1.50
2022-08-01T22:08:51.351Z,1.20
2022-08-01T22:11:25.561Z,1.40
2022-08-01T22:13:55.239Z,1.30
2022-08-01T22:16:22.266Z,1.50
2022-08-01T22:18:49.460Z,1.60
2022-08-01T22:21:17.330Z,1.50
2022-08-01T22:23:44.564Z,1.40
2022-08-01T22:26:12.223Z,1.50
2022-08-01T22:28:40.431Z,1.38
2022-08-01T22:31:07.410Z,1.40
2022-08-01T22:33:39.152Z,1.60
2022-08-01T22:36:07.472Z,1.70
2022-08-01T22:38:34.729Z,1.50
2022-08-01T22:41:04.710Z,1.70
2022-08-01T22:43:52.546Z,1.50
2022-08-01T22:46:31.011Z,1.50
2022-08-01T22:49:21.555Z,1.80
2022-08-01T22:51:54.626Z,1.50
2022-08-01T22:54:28.866Z,1.60
2022-08-01T22:56:57.204Z,1.80
2022-08-01T22:59:48.029Z,1.80
2022-08-01T23:02:17.204Z,1.90
2022-08-01T23:04:47.482Z,1.60
2022-08-01T23:07:24.015Z,1.60
2022-08-01T23:09:55.495Z,1.80
2022-08-01T23:12:27.481Z,1.67
2022-08-01T23:14:59.180Z,1.73
2022-08-01T23:17:29.146Z,1.65
2022-08-01T23:20:05.850Z,1.67
2022-08-01T23:22:36.479Z,1.60
2022-08-01T23:25:06.829Z,1.70
2022-08-01T23:27:54.396Z,1.90
2022-08-01T23:30:31.403Z,1.70
2022-08-01T23:32:58.360Z,1.73
2022-08-01T23:35:25.924Z,1.75
2022-08-01T23:37:58.363Z,1.65
2022-08-01T23:40:29.013Z,1.80
2022-08-01T23:42:56.021Z,1.60
2022-08-01T23:45:23.421Z,1.77
2022-08-01T23:47:50.630Z,1.70
2022-08-01T23:50:17.395Z,1.30
2022-08-01T23:52:48.514Z,1.60
2022-08-01T23:55:17.064Z,1.48
2022-08-01T23:57:44.421Z,1.30
